sensor_id;sensor_type;location;lat;lon;timestamp;P1;durP1;ratioP1;P2;durP2;ratioP2
5987;SDS011;3021;51.000;6.980;2022-10-16T00:02:19;5.70;;;2.60;;
5987;SDS011;3021;51.000;6.980;2022-10-16T00:04:44;3.13;;;2.50;;
5987;SDS011;3021;51.000;6.980;2022-10-16T00:07:10;7.32;;;2.60;;
5987;SDS011;3021;51.000;6.980;2022-10-16T00:09:35;3.90;;;2.72;;
5987;SDS011;3021;51.000;6.980;2022-10-16T00:12:01;4.88;;;2.28;;
5987;SDS011;3021;51.000;6.980;2022-10-16T00:14:26;3.55;;;2.25;;
5987;SDS011;3021;51.000;6.980;2022-10-16T00:16:51;3.30;;;2.25;;
5987;SDS011;3021;51.000;6.980;2022-10-16T00:19:17;3.30;;;2.47;;
5987;SDS011;3021;51.000;6.980;2022-10-16T00:21:42;5.05;;;2.42;;
5987;SDS011;3021;51.000;6.980;2022-10-16T00:24:08;2.90;;;2.22;;
5987;SDS011;3021;51.000;6.980;2022-10-16T00:26:35;5.63;;;2.95;;
5987;SDS011;3021;51.000;6.980;2022-10-16T00:29:01;3.63;;;2.53;;
5987;SDS011;3021;51.000;6.980;2022-10-16T00:31:28;5.60;;;2.80;;
5987;SDS011;3021;51.000;6.980;2022-10-16T00:33:54;4.22;;;2.60;;
5987;SDS011;3021;51.000;6.980;2022-10-16T00:36:23;3.90;;;2.63;;
5987;SDS011;3021;51.000;6.980;2022-10-16T00:38:51;4.45;;;2.58;;
5987;SDS011;3021;51.000;6.980;2022-10-16T00:41:18;5.70;;;2.38;;
5987;SDS011;3021;51.000;6.980;2022-10-16T00:43:45;11.23;;;3.00;;
5987;SDS011;3021;51.000;6.980;2022-10-16T00:51:38;4.45;;;2.88;;
5987;SDS011;3021;51.000;6.980;2022-10-16T00:54:10;4.22;;;2.88;;
5987;SDS011;3021;51.000;6.980;2022-10-16T00:56:39;5.22;;;3.13;;
5987;SDS011;3021;51.000;6.980;2022-10-16T00:59:06;3.60;;;2.70;;
5987;SDS011;3021;51.000;6.980;2022-10-16T01:01:36;3.92;;;3.17;;
5987;SDS011;3021;51.000;6.980;2022-10-16T01:04:02;6.15;;;3.03;;
5987;SDS011;3021;51.000;6.980;2022-10-16T01:06:36;4.63;;;2.70;;
5987;SDS011;3021;51.000;6.980;2022-10-16T01:09:12;2.95;;;2.38;;
5987;SDS011;3021;51.000;6.980;2022-10-16T01:12:33;3.78;;;2.65;;
5987;SDS011;3021;51.000;6.980;2022-10-16T01:14:40;3.03;;;2.25;;
5987;SDS011;3021;51.000;6.980;2022-10-16T01:17:14;4.70;;;2.57;;
5987;SDS011;3021;51.000;6.980;2022-10-16T01:20:03;4.28;;;2.63;;
5987;SDS011;3021;51.000;6.980;2022-10-16T01:22:43;2.92;;;2.30;;
5987;SDS011;3021;51.000;6.980;2022-10-16T01:25:34;3.00;;;2.58;;
5987;SDS011;3021;51.000;6.980;2022-10-16T01:28:02;4.93;;;2.80;;
5987;SDS011;3021;51.000;6.980;2022-10-16T01:30:34;2.88;;;2.28;;
5987;SDS011;3021;51.000;6.980;2022-10-16T01:35:42;2.88;;;2.03;;
5987;SDS011;3021;51.000;6.980;2022-10-16T01:38:17;4.60;;;2.40;;
5987;SDS011;3021;51.000;6.980;2022-10-16T01:40:52;3.40;;;2.13;;
5987;SDS011;3021;51.000;6.980;2022-10-16T01:43:25;3.35;;;2.22;;
5987;SDS011;3021;51.000;6.980;2022-10-16T01:45:56;3.83;;;1.90;;
5987;SDS011;3021;51.000;6.980;2022-10-16T01:48:22;3.08;;;2.10;;
5987;SDS011;3021;51.000;6.980;2022-10-16T01:50:54;3.60;;;2.63;;
5987;SDS011;3021;51.000;6.980;2022-10-16T01:53:24;5.90;;;2.30;;
5987;SDS011;3021;51.000;6.980;2022-10-16T01:55:51;3.45;;;2.20;;
5987;SDS011;3021;51.000;6.980;2022-10-16T01:58:19;3.63;;;1.83;;
5987;SDS011;3021;51.000;6.980;2022-10-16T02:00:45;4.25;;;2.05;;
5987;SDS011;3021;51.000;6.980;2022-10-16T02:03:13;3.70;;;2.08;;
5987;SDS011;3021;51.000;6.980;2022-10-16T02:06:01;6.80;;;2.25;;
5987;SDS011;3021;51.000;6.980;2022-10-16T02:08:27;4.32;;;1.70;;
5987;SDS011;3021;51.000;6.980;2022-10-16T02:10:55;3.05;;;2.10;;
5987;SDS011;3021;51.000;6.980;2022-10-16T02:13:23;5.00;;;2.30;;
5987;SDS011;3021;51.000;6.980;2022-10-16T02:15:54;2.20;;;1.80;;
5987;SDS011;3021;51.000;6.980;2022-10-16T02:18:19;7.05;;;2.30;;
5987;SDS011;3021;51.000;6.980;2022-10-16T02:23:19;3.63;;;2.08;;
5987;SDS011;3021;51.000;6.980;2022-10-16T02:25:52;3.00;;;1.70;;
5987;SDS011;3021;51.000;6.980;2022-10-16T02:28:22;3.55;;;1.80;;
5987;SDS011;3021;51.000;6.980;2022-10-16T02:30:54;3.80;;;1.65;;
5987;SDS011;3021;51.000;6.980;2022-10-16T02:33:24;1.83;;;1.50;;
5987;SDS011;3021;51.000;6.980;2022-10-16T02:35:51;4.60;;;1.88;;
5987;SDS011;3021;51.000;6.980;2022-10-16T02:38:19;5.75;;;2.10;;
5987;SDS011;3021;51.000;6.980;2022-10-16T02:40:46;2.58;;;1.65;;
5987;SDS011;3021;51.000;6.980;2022-10-16T02:43:11;4.47;;;1.63;;
5987;SDS011;3021;51.000;6.980;2022-10-16T02:45:37;2.92;;;1.50;;
5987;SDS011;3021;51.000;6.980;2022-10-16T02:48:03;2.58;;;1.73;;
5987;SDS011;3021;51.000;6.980;2022-10-16T02:50:29;2.00;;;1.73;;
5987;SDS011;3021;51.000;6.980;2022-10-16T02:52:54;3.72;;;1.45;;
5987;SDS011;3021;51.000;6.980;2022-10-16T02:55:19;1.95;;;1.65;;
5987;SDS011;3021;51.000;6.980;2022-10-16T02:57:44;6.22;;;1.60;;
5987;SDS011;3021;51.000;6.980;2022-10-16T03:00:11;3.97;;;1.35;;
5987;SDS011;3021;51.000;6.980;2022-10-16T03:02:38;2.88;;;1.50;;
5987;SDS011;3021;51.000;6.980;2022-10-16T03:05:04;3.33;;;1.33;;
5987;SDS011;3021;51.000;6.980;2022-10-16T03:07:30;4.75;;;1.70;;
5987;SDS011;3021;51.000;6.980;2022-10-16T03:09:55;3.53;;;1.50;;
5987;SDS011;3021;51.000;6.980;2022-10-16T03:12:20;2.38;;;1.30;;
5987;SDS011;3021;51.000;6.980;2022-10-16T03:14:46;4.50;;;1.65;;
5987;SDS011;3021;51.000;6.980;2022-10-16T03:17:12;3.03;;;1.40;;
5987;SDS011;3021;51.000;6.980;2022-10-16T03:19:38;2.70;;;1.45;;
5987;SDS011;3021;51.000;6.980;2022-10-16T03:22:03;4.65;;;1.70;;
5987;SDS011;3021;51.000;6.980;2022-10-16T03:24:29;2.97;;;1.63;;
5987;SDS011;3021;51.000;6.980;2022-10-16T03:26:54;1.95;;;1.38;;
5987;SDS011;3021;51.000;6.980;2022-10-16T03:29:19;4.53;;;1.60;;
5987;SDS011;3021;51.000;6.980;2022-10-16T03:31:44;4.65;;;1.63;;
5987;SDS011;3021;51.000;6.980;2022-10-16T03:34:10;1.90;;;1.50;;
5987;SDS011;3021;51.000;6.980;2022-10-16T03:36:35;2.30;;;1.60;;
5987;SDS011;3021;51.000;6.980;2022-10-16T03:39:01;2.10;;;1.40;;
5987;SDS011;3021;51.000;6.980;2022-10-16T03:41:26;3.88;;;1.30;;
5987;SDS011;3021;51.000;6.980;2022-10-16T03:43:51;2.35;;;1.55;;
5987;SDS011;3021;51.000;6.980;2022-10-16T03:46:17;3.58;;;1.30;;
5987;SDS011;3021;51.000;6.980;2022-10-16T03:48:42;2.10;;;1.40;;
5987;SDS011;3021;51.000;6.980;2022-10-16T03:51:08;3.22;;;1.75;;
5987;SDS011;3021;51.000;6.980;2022-10-16T03:53:33;1.83;;;1.20;;
5987;SDS011;3021;51.000;6.980;2022-10-16T03:55:58;1.90;;;1.35;;
5987;SDS011;3021;51.000;6.980;2022-10-16T03:58:23;2.92;;;1.50;;
5987;SDS011;3021;51.000;6.980;2022-10-16T04:00:49;1.70;;;1.20;;
5987;SDS011;3021;51.000;6.980;2022-10-16T04:03:14;2.22;;;1.13;;
5987;SDS011;3021;51.000;6.980;2022-10-16T04:05:40;3.05;;;1.50;;
5987;SDS011;3021;51.000;6.980;2022-10-16T04:08:05;3.50;;;1.25;;
5987;SDS011;3021;51.000;6.980;2022-10-16T04:10:31;1.38;;;1.05;;
5987;SDS011;3021;51.000;6.980;2022-10-16T04:12:57;2.20;;;1.10;;
5987;SDS011;3021;51.000;6.980;2022-10-16T04:15:23;1.38;;;0.88;;
5987;SDS011;3021;51.000;6.980;2022-10-16T04:17:49;2.42;;;1.10;;
5987;SDS011;3021;51.000;6.980;2022-10-16T04:20:15;2.45;;;1.67;;
5987;SDS011;3021;51.000;6.980;2022-10-16T04:22:41;2.65;;;1.40;;
5987;SDS011;3021;51.000;6.980;2022-10-16T04:25:06;1.40;;;1.23;;
5987;SDS011;3021;51.000;6.980;2022-10-16T04:27:32;1.70;;;0.95;;
5987;SDS011;3021;51.000;6.980;2022-10-16T04:29:58;2.20;;;1.20;;
5987;SDS011;3021;51.000;6.980;2022-10-16T04:32:24;2.40;;;1.10;;
5987;SDS011;3021;51.000;6.980;2022-10-16T04:34:49;2.08;;;1.50;;
5987;SDS011;3021;51.000;6.980;2022-10-16T04:37:15;2.45;;;1.30;;
5987;SDS011;3021;51.000;6.980;2022-10-16T04:39:40;1.35;;;1.25;;
5987;SDS011;3021;51.000;6.980;2022-10-16T04:42:05;0.93;;;0.90;;
5987;SDS011;3021;51.000;6.980;2022-10-16T04:44:31;1.55;;;1.05;;
5987;SDS011;3021;51.000;6.980;2022-10-16T04:46:56;1.33;;;1.05;;
5987;SDS011;3021;51.000;6.980;2022-10-16T04:49:21;3.60;;;1.58;;
5987;SDS011;3021;51.000;6.980;2022-10-16T04:51:47;4.22;;;1.50;;
5987;SDS011;3021;51.000;6.980;2022-10-16T04:54:12;1.55;;;1.20;;
5987;SDS011;3021;51.000;6.980;2022-10-16T04:56:37;2.22;;;1.17;;
5987;SDS011;3021;51.000;6.980;2022-10-16T04:59:11;2.08;;;1.30;;
5987;SDS011;3021;51.000;6.980;2022-10-16T05:01:36;2.70;;;1.15;;
5987;SDS011;3021;51.000;6.980;2022-10-16T05:04:01;2.95;;;1.10;;
5987;SDS011;3021;51.000;6.980;2022-10-16T05:06:27;2.40;;;1.40;;
5987;SDS011;3021;51.000;6.980;2022-10-16T05:08:52;4.05;;;1.08;;
5987;SDS011;3021;51.000;6.980;2022-10-16T05:11:17;1.92;;;1.20;;
5987;SDS011;3021;51.000;6.980;2022-10-16T05:13:43;2.85;;;1.08;;
5987;SDS011;3021;51.000;6.980;2022-10-16T05:16:08;1.50;;;1.15;;
5987;SDS011;3021;51.000;6.980;2022-10-16T05:18:33;4.88;;;1.58;;
5987;SDS011;3021;51.000;6.980;2022-10-16T05:20:59;2.42;;;1.20;;
5987;SDS011;3021;51.000;6.980;2022-10-16T05:23:24;4.03;;;1.40;;
5987;SDS011;3021;51.000;6.980;2022-10-16T05:25:53;3.20;;;1.25;;
5987;SDS011;3021;51.000;6.980;2022-10-16T05:28:22;2.97;;;1.30;;
5987;SDS011;3021;51.000;6.980;2022-10-16T05:30:48;1.60;;;1.38;;
5987;SDS011;3021;51.000;6.980;2022-10-16T05:33:14;1.73;;;1.30;;
5987;SDS011;3021;51.000;6.980;2022-10-16T05:35:39;9.10;;;6.35;;
5987;SDS011;3021;51.000;6.980;2022-10-16T05:38:04;1.95;;;1.70;;
5987;SDS011;3021;51.000;6.980;2022-10-16T05:40:29;1.83;;;1.30;;
5987;SDS011;3021;51.000;6.980;2022-10-16T05:42:55;5.40;;;1.38;;
5987;SDS011;3021;51.000;6.980;2022-10-16T05:45:20;3.20;;;1.42;;
5987;SDS011;3021;51.000;6.980;2022-10-16T05:47:46;1.88;;;1.40;;
5987;SDS011;3021;51.000;6.980;2022-10-16T05:50:11;2.38;;;1.60;;
5987;SDS011;3021;51.000;6.980;2022-10-16T05:52:36;1.38;;;1.27;;
5987;SDS011;3021;51.000;6.980;2022-10-16T05:55:02;5.53;;;1.95;;
5987;SDS011;3021;51.000;6.980;2022-10-16T05:57:28;6.40;;;2.00;;
5987;SDS011;3021;51.000;6.980;2022-10-16T05:59:53;4.15;;;1.50;;
5987;SDS011;3021;51.000;6.980;2022-10-16T06:02:18;4.85;;;1.55;;
5987;SDS011;3021;51.000;6.980;2022-10-16T06:04:44;5.05;;;1.65;;
5987;SDS011;3021;51.000;6.980;2022-10-16T06:07:09;3.55;;;1.75;;
5987;SDS011;3021;51.000;6.980;2022-10-16T06:09:34;2.33;;;1.90;;
5987;SDS011;3021;51.000;6.980;2022-10-16T06:12:00;4.97;;;1.75;;
5987;SDS011;3021;51.000;6.980;2022-10-16T06:14:25;3.13;;;1.98;;
5987;SDS011;3021;51.000;6.980;2022-10-16T06:16:50;3.90;;;1.90;;
5987;SDS011;3021;51.000;6.980;2022-10-16T06:19:16;4.40;;;1.90;;
5987;SDS011;3021;51.000;6.980;2022-10-16T06:21:42;2.33;;;1.88;;
5987;SDS011;3021;51.000;6.980;2022-10-16T06:24:07;6.45;;;1.90;;
5987;SDS011;3021;51.000;6.980;2022-10-16T06:26:33;3.10;;;2.00;;
5987;SDS011;3021;51.000;6.980;2022-10-16T06:28:58;6.72;;;2.17;;
5987;SDS011;3021;51.000;6.980;2022-10-16T06:31:25;2.63;;;1.90;;
5987;SDS011;3021;51.000;6.980;2022-10-16T06:33:53;3.15;;;2.13;;
5987;SDS011;3021;51.000;6.980;2022-10-16T06:36:19;3.75;;;1.95;;
5987;SDS011;3021;51.000;6.980;2022-10-16T06:38:45;2.83;;;1.85;;
5987;SDS011;3021;51.000;6.980;2022-10-16T06:41:12;2.58;;;1.98;;
5987;SDS011;3021;51.000;6.980;2022-10-16T06:43:39;3.70;;;2.28;;
5987;SDS011;3021;51.000;6.980;2022-10-16T06:46:05;3.35;;;2.47;;
5987;SDS011;3021;51.000;6.980;2022-10-16T06:48:34;4.53;;;2.35;;
5987;SDS011;3021;51.000;6.980;2022-10-16T06:53:27;4.80;;;2.28;;
5987;SDS011;3021;51.000;6.980;2022-10-16T06:55:54;3.35;;;2.58;;
5987;SDS011;3021;51.000;6.980;2022-10-16T06:58:19;3.85;;;2.22;;
5987;SDS011;3021;51.000;6.980;2022-10-16T07:00:45;3.15;;;2.15;;
5987;SDS011;3021;51.000;6.980;2022-10-16T07:03:11;3.70;;;2.00;;
5987;SDS011;3021;51.000;6.980;2022-10-16T07:05:43;3.67;;;2.13;;
5987;SDS011;3021;51.000;6.980;2022-10-16T07:08:08;6.50;;;2.10;;
5987;SDS011;3021;51.000;6.980;2022-10-16T07:10:34;3.15;;;2.40;;
5987;SDS011;3021;51.000;6.980;2022-10-16T07:13:00;6.90;;;2.50;;
5987;SDS011;3021;51.000;6.980;2022-10-16T07:15:25;3.15;;;2.13;;
5987;SDS011;3021;51.000;6.980;2022-10-16T07:17:51;4.72;;;2.75;;
5987;SDS011;3021;51.000;6.980;2022-10-16T07:20:16;4.97;;;2.58;;
5987;SDS011;3021;51.000;6.980;2022-10-16T07:22:42;3.13;;;2.40;;
5987;SDS011;3021;51.000;6.980;2022-10-16T07:25:07;5.28;;;2.47;;
5987;SDS011;3021;51.000;6.980;2022-10-16T07:27:33;6.10;;;2.67;;
5987;SDS011;3021;51.000;6.980;2022-10-16T07:29:59;2.85;;;2.00;;
5987;SDS011;3021;51.000;6.980;2022-10-16T07:32:24;3.28;;;2.50;;
5987;SDS011;3021;51.000;6.980;2022-10-16T07:34:50;4.82;;;2.30;;
5987;SDS011;3021;51.000;6.980;2022-10-16T07:37:16;4.97;;;2.40;;
5987;SDS011;3021;51.000;6.980;2022-10-16T07:39:42;3.38;;;2.45;;
5987;SDS011;3021;51.000;6.980;2022-10-16T07:42:07;6.05;;;2.40;;
5987;SDS011;3021;51.000;6.980;2022-10-16T07:44:33;3.63;;;2.50;;
5987;SDS011;3021;51.000;6.980;2022-10-16T07:46:58;3.05;;;2.22;;
5987;SDS011;3021;51.000;6.980;2022-10-16T07:49:24;6.28;;;2.50;;
5987;SDS011;3021;51.000;6.980;2022-10-16T07:51:49;5.70;;;2.50;;
5987;SDS011;3021;51.000;6.980;2022-10-16T07:54:15;4.78;;;2.58;;
5987;SDS011;3021;51.000;6.980;2022-10-16T07:56:40;3.70;;;2.70;;
5987;SDS011;3021;51.000;6.980;2022-10-16T07:59:05;4.22;;;2.28;;
5987;SDS011;3021;51.000;6.980;2022-10-16T08:01:31;3.92;;;2.60;;
5987;SDS011;3021;51.000;6.980;2022-10-16T08:03:56;3.15;;;2.05;;
5987;SDS011;3021;51.000;6.980;2022-10-16T08:06:22;3.60;;;2.33;;
5987;SDS011;3021;51.000;6.980;2022-10-16T08:08:47;3.58;;;1.88;;
5987;SDS011;3021;51.000;6.980;2022-10-16T08:11:12;2.30;;;1.80;;
5987;SDS011;3021;51.000;6.980;2022-10-16T08:13:39;5.57;;;2.30;;
5987;SDS011;3021;51.000;6.980;2022-10-16T08:16:05;2.22;;;1.20;;
5987;SDS011;3021;51.000;6.980;2022-10-16T08:18:33;1.35;;;1.02;;
5987;SDS011;3021;51.000;6.980;2022-10-16T08:21:02;5.03;;;1.63;;
5987;SDS011;3021;51.000;6.980;2022-10-16T08:23:28;1.85;;;0.90;;
5987;SDS011;3021;51.000;6.980;2022-10-16T08:25:54;4.53;;;1.30;;
5987;SDS011;3021;51.000;6.980;2022-10-16T08:28:21;2.47;;;1.10;;
5987;SDS011;3021;51.000;6.980;2022-10-16T08:30:47;1.75;;;1.30;;
5987;SDS011;3021;51.000;6.980;2022-10-16T08:33:12;2.63;;;1.10;;
5987;SDS011;3021;51.000;6.980;2022-10-16T08:35:38;3.85;;;1.42;;
5987;SDS011;3021;51.000;6.980;2022-10-16T08:38:04;4.05;;;1.27;;
5987;SDS011;3021;51.000;6.980;2022-10-16T08:40:30;1.77;;;1.10;;
5987;SDS011;3021;51.000;6.980;2022-10-16T08:50:48;2.55;;;1.13;;
5987;SDS011;3021;51.000;6.980;2022-10-16T08:53:27;3.50;;;0.95;;
5987;SDS011;3021;51.000;6.980;2022-10-16T08:55:55;4.53;;;1.20;;
5987;SDS011;3021;51.000;6.980;2022-10-16T08:58:25;1.20;;;0.93;;
5987;SDS011;3021;51.000;6.980;2022-10-16T09:00:53;2.75;;;0.80;;
5987;SDS011;3021;51.000;6.980;2022-10-16T09:08:57;1.95;;;1.20;;
5987;SDS011;3021;51.000;6.980;2022-10-16T09:19:53;3.65;;;1.00;;
5987;SDS011;3021;51.000;6.980;2022-10-16T09:22:27;0.70;;;0.70;;
5987;SDS011;3021;51.000;6.980;2022-10-16T09:24:54;2.80;;;0.90;;
5987;SDS011;3021;51.000;6.980;2022-10-16T09:27:24;1.90;;;0.77;;
5987;SDS011;3021;51.000;6.980;2022-10-16T09:29:51;2.72;;;0.90;;
5987;SDS011;3021;51.000;6.980;2022-10-16T09:32:18;1.05;;;0.70;;
5987;SDS011;3021;51.000;6.980;2022-10-16T09:34:47;1.15;;;0.60;;
5987;SDS011;3021;51.000;6.980;2022-10-16T09:37:17;2.10;;;0.85;;
5987;SDS011;3021;51.000;6.980;2022-10-16T09:39:45;3.55;;;1.20;;
5987;SDS011;3021;51.000;6.980;2022-10-16T09:44:55;2.42;;;0.73;;
5987;SDS011;3021;51.000;6.980;2022-10-16T09:47:22;3.35;;;0.70;;
5987;SDS011;3021;51.000;6.980;2022-10-16T09:49:51;2.85;;;0.80;;
5987;SDS011;3021;51.000;6.980;2022-10-16T09:52:29;1.48;;;0.80;;
5987;SDS011;3021;51.000;6.980;2022-10-16T09:54:56;5.45;;;1.00;;
5987;SDS011;3021;51.000;6.980;2022-10-16T09:57:26;3.30;;;1.02;;
5987;SDS011;3021;51.000;6.980;2022-10-16T09:59:53;2.00;;;0.68;;
5987;SDS011;3021;51.000;6.980;2022-10-16T10:02:23;2.72;;;0.88;;
5987;SDS011;3021;51.000;6.980;2022-10-16T10:05:04;1.13;;;0.63;;
5987;SDS011;3021;51.000;6.980;2022-10-16T10:07:31;1.98;;;0.70;;
5987;SDS011;3021;51.000;6.980;2022-10-16T10:10:00;2.97;;;0.70;;
5987;SDS011;3021;51.000;6.980;2022-10-16T10:12:29;4.70;;;0.68;;
5987;SDS011;3021;51.000;6.980;2022-10-16T10:15:07;1.95;;;0.90;;
5987;SDS011;3021;51.000;6.980;2022-10-16T10:20:29;3.97;;;1.27;;
5987;SDS011;3021;51.000;6.980;2022-10-16T10:22:59;1.52;;;0.50;;
5987;SDS011;3021;51.000;6.980;2022-10-16T10:28:42;0.63;;;0.47;;
5987;SDS011;3021;51.000;6.980;2022-10-16T10:36:41;4.45;;;1.02;;
5987;SDS011;3021;51.000;6.980;2022-10-16T10:50:14;2.28;;;0.80;;
5987;SDS011;3021;51.000;6.980;2022-10-16T11:01:18;1.17;;;0.65;;
5987;SDS011;3021;51.000;6.980;2022-10-16T11:06:43;2.38;;;1.02;;
5987;SDS011;3021;51.000;6.980;2022-10-16T11:09:25;3.78;;;0.50;;
5987;SDS011;3021;51.000;6.980;2022-10-16T11:12:05;0.80;;;0.40;;
5987;SDS011;3021;51.000;6.980;2022-10-16T11:14:43;1.88;;;0.70;;
5987;SDS011;3021;51.000;6.980;2022-10-16T11:17:28;1.88;;;0.90;;
5987;SDS011;3021;51.000;6.980;2022-10-16T11:25:18;1.80;;;0.90;;
5987;SDS011;3021;51.000;6.980;2022-10-16T11:27:53;1.17;;;0.40;;
5987;SDS011;3021;51.000;6.980;2022-10-16T11:30:27;1.67;;;1.02;;
5987;SDS011;3021;51.000;6.980;2022-10-16T11:38:51;0.73;;;0.47;;
5987;SDS011;3021;51.000;6.980;2022-10-16T11:43:52;3.28;;;0.90;;
5987;SDS011;3021;51.000;6.980;2022-10-16T11:46:38;4.40;;;0.80;;
5987;SDS011;3021;51.000;6.980;2022-10-16T11:49:18;2.45;;;0.75;;
5987;SDS011;3021;51.000;6.980;2022-10-16T11:54:47;4.57;;;0.82;;
5987;SDS011;3021;51.000;6.980;2022-10-16T11:57:29;2.42;;;0.75;;
5987;SDS011;3021;51.000;6.980;2022-10-16T12:00:00;1.15;;;0.60;;
5987;SDS011;3021;51.000;6.980;2022-10-16T12:05:51;1.92;;;0.90;;
5987;SDS011;3021;51.000;6.980;2022-10-16T12:08:23;5.63;;;0.90;;
5987;SDS011;3021;51.000;6.980;2022-10-16T12:10:49;1.90;;;0.80;;
5987;SDS011;3021;51.000;6.980;2022-10-16T12:13:32;1.63;;;0.40;;
5987;SDS011;3021;51.000;6.980;2022-10-16T12:18:36;1.08;;;0.60;;
5987;SDS011;3021;51.000;6.980;2022-10-16T12:21:02;6.05;;;1.08;;
5987;SDS011;3021;51.000;6.980;2022-10-16T12:23:32;1.67;;;0.52;;
5987;SDS011;3021;51.000;6.980;2022-10-16T12:26:02;1.15;;;0.57;;
5987;SDS011;3021;51.000;6.980;2022-10-16T12:28:31;1.42;;;0.70;;
5987;SDS011;3021;51.000;6.980;2022-10-16T12:31:01;1.83;;;0.82;;
5987;SDS011;3021;51.000;6.980;2022-10-16T12:33:32;7.57;;;1.05;;
5987;SDS011;3021;51.000;6.980;2022-10-16T12:35:59;1.20;;;0.63;;
5987;SDS011;3021;51.000;6.980;2022-10-16T12:38:28;4.18;;;0.75;;
5987;SDS011;3021;51.000;6.980;2022-10-16T12:41:06;2.17;;;0.60;;
5987;SDS011;3021;51.000;6.980;2022-10-16T12:48:38;1.75;;;0.88;;
5987;SDS011;3021;51.000;6.980;2022-10-16T13:05:24;5.07;;;1.27;;
5987;SDS011;3021;51.000;6.980;2022-10-16T13:18:04;1.50;;;0.65;;
5987;SDS011;3021;51.000;6.980;2022-10-16T13:23:15;2.78;;;0.50;;
5987;SDS011;3021;51.000;6.980;2022-10-16T13:26:06;2.63;;;0.90;;
5987;SDS011;3021;51.000;6.980;2022-10-16T13:28:42;3.50;;;0.90;;
5987;SDS011;3021;51.000;6.980;2022-10-16T13:31:21;1.23;;;0.77;;
5987;SDS011;3021;51.000;6.980;2022-10-16T13:33:52;2.67;;;0.70;;
5987;SDS011;3021;51.000;6.980;2022-10-16T13:36:25;0.70;;;0.70;;
5987;SDS011;3021;51.000;6.980;2022-10-16T13:41:39;1.53;;;0.60;;
5987;SDS011;3021;51.000;6.980;2022-10-16T13:44:08;1.77;;;0.85;;
5987;SDS011;3021;51.000;6.980;2022-10-16T13:46:39;2.50;;;0.77;;
5987;SDS011;3021;51.000;6.980;2022-10-16T13:49:05;1.58;;;1.00;;
5987;SDS011;3021;51.000;6.980;2022-10-16T13:51:36;2.13;;;1.02;;
5987;SDS011;3021;51.000;6.980;2022-10-16T13:54:02;2.13;;;1.10;;
5987;SDS011;3021;51.000;6.980;2022-10-16T13:56:28;2.33;;;0.70;;
5987;SDS011;3021;51.000;6.980;2022-10-16T13:59:06;3.67;;;0.90;;
5987;SDS011;3021;51.000;6.980;2022-10-16T14:01:47;1.75;;;0.93;;
5987;SDS011;3021;51.000;6.980;2022-10-16T14:04:12;1.80;;;1.05;;
5987;SDS011;3021;51.000;6.980;2022-10-16T14:06:40;3.45;;;1.20;;
5987;SDS011;3021;51.000;6.980;2022-10-16T14:09:29;4.03;;;0.88;;
5987;SDS011;3021;51.000;6.980;2022-10-16T14:12:01;1.27;;;0.77;;
5987;SDS011;3021;51.000;6.980;2022-10-16T14:14:42;2.03;;;0.95;;
5987;SDS011;3021;51.000;6.980;2022-10-16T14:17:13;2.25;;;0.80;;
5987;SDS011;3021;51.000;6.980;2022-10-16T14:19:40;2.05;;;0.90;;
5987;SDS011;3021;51.000;6.980;2022-10-16T14:22:17;2.88;;;0.63;;
5987;SDS011;3021;51.000;6.980;2022-10-16T14:24:54;1.67;;;0.73;;
5987;SDS011;3021;51.000;6.980;2022-10-16T14:27:25;2.65;;;0.85;;
5987;SDS011;3021;51.000;6.980;2022-10-16T14:30:31;1.38;;;0.98;;
5987;SDS011;3021;51.000;6.980;2022-10-16T14:33:20;3.35;;;1.02;;
5987;SDS011;3021;51.000;6.980;2022-10-16T14:35:58;1.33;;;0.85;;
5987;SDS011;3021;51.000;6.980;2022-10-16T14:38:39;2.72;;;0.77;;
5987;SDS011;3021;51.000;6.980;2022-10-16T14:41:06;3.22;;;1.05;;
5987;SDS011;3021;51.000;6.980;2022-10-16T14:43:41;3.67;;;1.10;;
5987;SDS011;3021;51.000;6.980;2022-10-16T14:46:12;2.13;;;1.05;;
5987;SDS011;3021;51.000;6.980;2022-10-16T14:48:43;1.33;;;0.80;;
5987;SDS011;3021;51.000;6.980;2022-10-16T14:51:15;2.33;;;0.70;;
5987;SDS011;3021;51.000;6.980;2022-10-16T14:53:44;2.03;;;0.85;;
5987;SDS011;3021;51.000;6.980;2022-10-16T14:56:20;3.78;;;0.80;;
5987;SDS011;3021;51.000;6.980;2022-10-16T14:58:47;0.82;;;0.73;;
5987;SDS011;3021;51.000;6.980;2022-10-16T15:01:14;2.60;;;1.08;;
5987;SDS011;3021;51.000;6.980;2022-10-16T15:03:40;5.30;;;1.17;;
5987;SDS011;3021;51.000;6.980;2022-10-16T15:06:09;3.15;;;1.00;;
5987;SDS011;3021;51.000;6.980;2022-10-16T15:08:36;3.05;;;1.00;;
5987;SDS011;3021;51.000;6.980;2022-10-16T15:11:01;1.00;;;0.60;;
5987;SDS011;3021;51.000;6.980;2022-10-16T15:13:27;1.20;;;1.10;;
5987;SDS011;3021;51.000;6.980;2022-10-16T15:15:53;1.50;;;1.20;;
5987;SDS011;3021;51.000;6.980;2022-10-16T15:18:18;3.53;;;1.35;;
5987;SDS011;3021;51.000;6.980;2022-10-16T15:20:48;1.95;;;0.98;;
5987;SDS011;3021;51.000;6.980;2022-10-16T15:23:16;0.98;;;0.77;;
5987;SDS011;3021;51.000;6.980;2022-10-16T15:25:44;3.40;;;1.00;;
5987;SDS011;3021;51.000;6.980;2022-10-16T15:28:10;1.40;;;1.10;;
5987;SDS011;3021;51.000;6.980;2022-10-16T15:30:36;1.35;;;1.08;;
5987;SDS011;3021;51.000;6.980;2022-10-16T15:33:03;2.60;;;1.02;;
5987;SDS011;3021;51.000;6.980;2022-10-16T15:35:30;1.35;;;1.00;;
5987;SDS011;3021;51.000;6.980;2022-10-16T15:37:55;4.53;;;1.70;;
5987;SDS011;3021;51.000;6.980;2022-10-16T15:40:21;3.25;;;1.17;;
5987;SDS011;3021;51.000;6.980;2022-10-16T15:42:47;2.10;;;0.88;;
5987;SDS011;3021;51.000;6.980;2022-10-16T15:45:13;2.40;;;1.48;;
5987;SDS011;3021;51.000;6.980;2022-10-16T15:47:40;2.25;;;1.10;;
5987;SDS011;3021;51.000;6.980;2022-10-16T15:50:06;2.50;;;1.17;;
5987;SDS011;3021;51.000;6.980;2022-10-16T15:52:32;4.07;;;1.45;;
5987;SDS011;3021;51.000;6.980;2022-10-16T15:54:58;5.80;;;1.45;;
5987;SDS011;3021;51.000;6.980;2022-10-16T15:57:23;1.33;;;1.08;;
5987;SDS011;3021;51.000;6.980;2022-10-16T15:59:49;4.32;;;1.33;;
5987;SDS011;3021;51.000;6.980;2022-10-16T16:02:15;10.25;;;1.70;;
5987;SDS011;3021;51.000;6.980;2022-10-16T16:04:40;3.42;;;1.73;;
5987;SDS011;3021;51.000;6.980;2022-10-16T16:07:06;2.05;;;1.40;;
5987;SDS011;3021;51.000;6.980;2022-10-16T16:09:34;1.70;;;1.35;;
5987;SDS011;3021;51.000;6.980;2022-10-16T16:11:59;4.43;;;1.40;;
5987;SDS011;3021;51.000;6.980;2022-10-16T16:14:26;3.50;;;1.63;;
5987;SDS011;3021;51.000;6.980;2022-10-16T16:16:53;2.92;;;1.55;;
5987;SDS011;3021;51.000;6.980;2022-10-16T16:19:19;5.00;;;1.30;;
5987;SDS011;3021;51.000;6.980;2022-10-16T16:21:46;2.95;;;1.63;;
5987;SDS011;3021;51.000;6.980;2022-10-16T16:24:11;2.65;;;1.35;;
5987;SDS011;3021;51.000;6.980;2022-10-16T16:26:37;3.08;;;1.58;;
5987;SDS011;3021;51.000;6.980;2022-10-16T16:29:04;6.20;;;1.50;;
5987;SDS011;3021;51.000;6.980;2022-10-16T16:31:31;3.05;;;1.10;;
5987;SDS011;3021;51.000;6.980;2022-10-16T16:33:57;1.80;;;1.30;;
5987;SDS011;3021;51.000;6.980;2022-10-16T16:36:23;1.98;;;1.27;;
5987;SDS011;3021;51.000;6.980;2022-10-16T16:38:49;2.13;;;1.77;;
5987;SDS011;3021;51.000;6.980;2022-10-16T16:41:16;4.80;;;1.85;;
5987;SDS011;3021;51.000;6.980;2022-10-16T16:43:43;4.63;;;1.70;;
5987;SDS011;3021;51.000;6.980;2022-10-16T16:46:09;2.08;;;1.52;;
5987;SDS011;3021;51.000;6.980;2022-10-16T16:48:36;5.30;;;1.70;;
5987;SDS011;3021;51.000;6.980;2022-10-16T16:51:12;4.28;;;1.65;;
5987;SDS011;3021;51.000;6.980;2022-10-16T16:53:41;2.83;;;2.08;;
5987;SDS011;3021;51.000;6.980;2022-10-16T16:56:10;3.83;;;1.80;;
5987;SDS011;3021;51.000;6.980;2022-10-16T16:58:35;7.13;;;2.20;;
5987;SDS011;3021;51.000;6.980;2022-10-16T17:01:01;3.13;;;1.80;;
5987;SDS011;3021;51.000;6.980;2022-10-16T17:03:28;3.50;;;1.88;;
5987;SDS011;3021;51.000;6.980;2022-10-16T17:05:56;3.15;;;1.67;;
5987;SDS011;3021;51.000;6.980;2022-10-16T17:08:26;4.63;;;1.75;;
5987;SDS011;3021;51.000;6.980;2022-10-16T17:10:52;4.07;;;1.65;;
5987;SDS011;3021;51.000;6.980;2022-10-16T17:13:20;2.30;;;1.50;;
5987;SDS011;3021;51.000;6.980;2022-10-16T17:15:50;2.10;;;1.60;;
5987;SDS011;3021;51.000;6.980;2022-10-16T17:18:17;2.42;;;1.50;;
5987;SDS011;3021;51.000;6.980;2022-10-16T17:20:43;2.85;;;1.45;;
5987;SDS011;3021;51.000;6.980;2022-10-16T17:23:09;4.15;;;1.50;;
5987;SDS011;3021;51.000;6.980;2022-10-16T17:25:36;8.57;;;1.60;;
5987;SDS011;3021;51.000;6.980;2022-10-16T17:28:02;5.15;;;1.77;;
5987;SDS011;3021;51.000;6.980;2022-10-16T17:30:27;3.10;;;1.85;;
5987;SDS011;3021;51.000;6.980;2022-10-16T17:32:53;3.20;;;2.08;;